THY8YK LTFM-LTAL
Flight info
| Callsign | THY8YK |
|---|---|
| Flight time | 0h 48m |
| Altitude | 31000 |
| Route | EKAWE UT641 ABSAX UN743 GAKSU W101 INB |
| Aircraft | A319/M-SDE3FGHIRWY/LB1 |
Departure
| Time | 2026-05-09 07:33 |
|---|---|
| Airport | İstanbul Airport (LTFM) |
Arrival
| Time | 2026-05-09 08:22 |
|---|---|
| Airport | Kastamonu Airport (LTAL) |
| Time | Latitude | Longitude | Altitude | Speed | Heading |
|---|---|---|---|---|---|
| 2026-05-09 06:59 | 41.26035 | 28.74958 | 332 ft | 0 kts | 251° |
| 2026-05-09 07:19 | 41.26036 | 28.74962 | 330 ft | 3 kts | 251° |
| 2026-05-09 07:19 | 41.26045 | 28.74996 | 330 ft | 4 kts | 251° |
| 2026-05-09 07:19 | 41.26051 | 28.75039 | 330 ft | 4 kts | 290° |
| 2026-05-09 07:20 | 41.26036 | 28.75064 | 330 ft | 3 kts | 339° |
| 2026-05-09 07:20 | 41.26026 | 28.75068 | 332 ft | 1 kts | 341° |
| 2026-05-09 07:20 | 41.26026 | 28.75069 | 332 ft | 0 kts | 341° |
| 2026-05-09 07:23 | 41.26026 | 28.75068 | 332 ft | 0 kts | 341° |
| 2026-05-09 07:23 | 41.26038 | 28.75063 | 331 ft | 3 kts | 341° |
| 2026-05-09 07:23 | 41.26067 | 28.75049 | 332 ft | 6 kts | 341° |
| 2026-05-09 07:24 | 41.26112 | 28.75029 | 332 ft | 8 kts | 341° |
| 2026-05-09 07:24 | 41.26169 | 28.75003 | 333 ft | 9 kts | 343° |
| 2026-05-09 07:24 | 41.26232 | 28.75010 | 334 ft | 10 kts | 41° |
| 2026-05-09 07:24 | 41.26243 | 28.75104 | 334 ft | 11 kts | 89° |
| 2026-05-09 07:25 | 41.26244 | 28.75191 | 334 ft | 10 kts | 89° |
| 2026-05-09 07:25 | 41.26246 | 28.75290 | 334 ft | 10 kts | 90° |
| 2026-05-09 07:25 | 41.26258 | 28.75376 | 331 ft | 9 kts | 53° |
| 2026-05-09 07:25 | 41.26325 | 28.75390 | 331 ft | 11 kts | 359° |
| 2026-05-09 07:26 | 41.26422 | 28.75388 | 333 ft | 17 kts | 359° |
| 2026-05-09 07:26 | 41.26544 | 28.75385 | 333 ft | 18 kts | 359° |
| 2026-05-09 07:26 | 41.26675 | 28.75382 | 334 ft | 19 kts | 359° |
| 2026-05-09 07:26 | 41.26815 | 28.75379 | 330 ft | 21 kts | 359° |
| 2026-05-09 07:27 | 41.26954 | 28.75375 | 332 ft | 20 kts | 359° |
| 2026-05-09 07:27 | 41.27098 | 28.75372 | 334 ft | 21 kts | 359° |
| 2026-05-09 07:27 | 41.27245 | 28.75369 | 333 ft | 22 kts | 359° |
| 2026-05-09 07:27 | 41.27406 | 28.75365 | 332 ft | 24 kts | 359° |
| 2026-05-09 07:28 | 41.27581 | 28.75361 | 333 ft | 27 kts | 359° |
| 2026-05-09 07:28 | 41.27729 | 28.75357 | 330 ft | 28 kts | 358° |
| 2026-05-09 07:28 | 41.27926 | 28.75352 | 331 ft | 29 kts | 359° |
| 2026-05-09 07:28 | 41.28138 | 28.75348 | 330 ft | 31 kts | 358° |
| 2026-05-09 07:29 | 41.28352 | 28.75343 | 332 ft | 31 kts | 359° |
| 2026-05-09 07:29 | 41.28569 | 28.75338 | 334 ft | 31 kts | 359° |
| 2026-05-09 07:29 | 41.28758 | 28.75333 | 333 ft | 18 kts | 359° |
| 2026-05-09 07:29 | 41.28885 | 28.75330 | 333 ft | 19 kts | 359° |
| 2026-05-09 07:30 | 41.28971 | 28.75337 | 334 ft | 12 kts | 23° |
| 2026-05-09 07:30 | 41.28994 | 28.75439 | 334 ft | 13 kts | 91° |
| 2026-05-09 07:30 | 41.28993 | 28.75565 | 334 ft | 8 kts | 90° |
| 2026-05-09 07:30 | 41.28993 | 28.75583 | 334 ft | 0 kts | 90° |
| 2026-05-09 07:31 | 41.28993 | 28.75584 | 334 ft | 0 kts | 90° |
| 2026-05-09 07:31 | 41.28987 | 28.75599 | 331 ft | 3 kts | 128° |
| 2026-05-09 07:32 | 41.28949 | 28.75614 | 332 ft | 8 kts | 174° |
| 2026-05-09 07:32 | 41.28936 | 28.75615 | 332 ft | 0 kts | 178° |
| 2026-05-09 07:32 | 41.28918 | 28.75615 | 334 ft | 12 kts | 178° |
| 2026-05-09 07:32 | 41.28602 | 28.75621 | 333 ft | 79 kts | 179° |
| 2026-05-09 07:33 | 41.27853 | 28.75634 | 333 ft | 134 kts | 179° |
| 2026-05-09 07:33 | 41.25728 | 28.75707 | 1236 ft | 156 kts | 176° |
| 2026-05-09 07:33 | 41.24763 | 28.76409 | 1714 ft | 174 kts | 141° |
| 2026-05-09 07:34 | 41.23826 | 28.77591 | 2028 ft | 196 kts | 144° |
| 2026-05-09 07:34 | 41.22659 | 28.78718 | 2297 ft | 220 kts | 150° |
| 2026-05-09 07:34 | 41.21293 | 28.79877 | 2763 ft | 244 kts | 151° |
| 2026-05-09 07:34 | 41.19806 | 28.81116 | 3504 ft | 258 kts | 150° |
| 2026-05-09 07:35 | 41.18568 | 28.82898 | 4402 ft | 274 kts | 118° |
| 2026-05-09 07:35 | 41.18166 | 28.85412 | 5349 ft | 284 kts | 96° |
| 2026-05-09 07:35 | 41.18125 | 28.88053 | 6330 ft | 289 kts | 91° |
| 2026-05-09 07:35 | 41.18460 | 28.90714 | 7200 ft | 298 kts | 70° |
| 2026-05-09 07:36 | 41.19530 | 28.93079 | 8080 ft | 302 kts | 48° |
| 2026-05-09 07:36 | 41.20962 | 28.95136 | 9057 ft | 305 kts | 46° |
| 2026-05-09 07:36 | 41.22434 | 28.97202 | 9976 ft | 310 kts | 45° |
| 2026-05-09 07:36 | 41.23956 | 28.99326 | 10532 ft | 328 kts | 45° |
| 2026-05-09 07:37 | 41.25594 | 29.01603 | 10876 ft | 352 kts | 45° |
| 2026-05-09 07:37 | 41.27312 | 29.03991 | 11259 ft | 369 kts | 45° |
| 2026-05-09 07:37 | 41.29099 | 29.06487 | 11900 ft | 376 kts | 45° |
| 2026-05-09 07:37 | 41.30906 | 29.09021 | 12607 ft | 380 kts | 45° |
| 2026-05-09 07:38 | 41.32732 | 29.11588 | 13393 ft | 384 kts | 45° |
| 2026-05-09 07:38 | 41.34573 | 29.14181 | 14081 ft | 386 kts | 45° |
| 2026-05-09 07:38 | 41.36424 | 29.16792 | 14713 ft | 389 kts | 45° |
| 2026-05-09 07:38 | 41.38291 | 29.19430 | 15353 ft | 392 kts | 45° |
| 2026-05-09 07:39 | 41.40167 | 29.22083 | 15993 ft | 395 kts | 45° |
| 2026-05-09 07:39 | 41.42057 | 29.24757 | 16629 ft | 398 kts | 45° |
| 2026-05-09 07:39 | 41.43963 | 29.27452 | 17308 ft | 401 kts | 45° |
| 2026-05-09 07:39 | 41.45884 | 29.30169 | 18009 ft | 405 kts | 45° |
| 2026-05-09 07:40 | 41.47821 | 29.32911 | 18654 ft | 407 kts | 46° |
| 2026-05-09 07:40 | 41.49767 | 29.35670 | 19253 ft | 410 kts | 46° |
| 2026-05-09 07:40 | 41.51726 | 29.38449 | 19834 ft | 412 kts | 46° |
| 2026-05-09 07:40 | 41.53699 | 29.41250 | 20399 ft | 415 kts | 46° |
| 2026-05-09 07:41 | 41.55683 | 29.44069 | 20951 ft | 418 kts | 46° |
| 2026-05-09 07:41 | 41.57680 | 29.46911 | 21474 ft | 421 kts | 46° |
| 2026-05-09 07:41 | 41.59659 | 29.49732 | 21984 ft | 423 kts | 46° |
| 2026-05-09 07:41 | 41.61677 | 29.52610 | 22482 ft | 426 kts | 47° |
| 2026-05-09 07:42 | 41.63709 | 29.55510 | 22963 ft | 429 kts | 47° |
| 2026-05-09 07:42 | 41.65755 | 29.58430 | 23441 ft | 431 kts | 47° |
| 2026-05-09 07:42 | 41.67810 | 29.61370 | 23866 ft | 434 kts | 47° |
| 2026-05-09 07:42 | 41.69877 | 29.64330 | 24261 ft | 437 kts | 47° |
| 2026-05-09 07:43 | 41.71963 | 29.67315 | 24650 ft | 439 kts | 47° |
| 2026-05-09 07:43 | 41.74063 | 29.70321 | 25037 ft | 441 kts | 47° |
| 2026-05-09 07:43 | 41.76163 | 29.73333 | 25428 ft | 444 kts | 47° |
| 2026-05-09 07:43 | 41.78273 | 29.76363 | 25826 ft | 446 kts | 47° |
| 2026-05-09 07:44 | 41.80390 | 29.79415 | 26213 ft | 448 kts | 47° |
| 2026-05-09 07:44 | 41.82517 | 29.82484 | 26591 ft | 450 kts | 47° |
| 2026-05-09 07:44 | 41.84652 | 29.85566 | 26970 ft | 452 kts | 47° |
| 2026-05-09 07:44 | 41.86800 | 29.88669 | 27336 ft | 455 kts | 47° |
| 2026-05-09 07:45 | 41.88955 | 29.91789 | 27700 ft | 457 kts | 48° |
| 2026-05-09 07:45 | 41.91085 | 29.94878 | 28084 ft | 458 kts | 48° |
| 2026-05-09 07:45 | 41.93255 | 29.98022 | 28447 ft | 460 kts | 48° |
| 2026-05-09 07:45 | 41.95433 | 30.01177 | 28794 ft | 462 kts | 48° |
| 2026-05-09 07:46 | 41.97610 | 30.04358 | 29130 ft | 463 kts | 51° |
| 2026-05-09 07:46 | 41.99505 | 30.07864 | 29452 ft | 464 kts | 60° |
| 2026-05-09 07:46 | 42.00940 | 30.11735 | 29782 ft | 463 kts | 70° |
| 2026-05-09 07:46 | 42.01883 | 30.15867 | 30117 ft | 462 kts | 80° |
| 2026-05-09 07:47 | 42.02304 | 30.20143 | 30505 ft | 459 kts | 89° |
| 2026-05-09 07:47 | 42.02215 | 30.24408 | 30911 ft | 455 kts | 97° |
| 2026-05-09 07:47 | 42.01915 | 30.28639 | 31059 ft | 454 kts | 97° |
| 2026-05-09 07:48 | 42.01310 | 30.36974 | 31088 ft | 445 kts | 97° |
| 2026-05-09 07:48 | 42.00687 | 30.45252 | 31090 ft | 444 kts | 97° |
| 2026-05-09 07:49 | 42.00057 | 30.53514 | 31091 ft | 444 kts | 97° |
| 2026-05-09 07:49 | 41.99816 | 30.61809 | 31090 ft | 446 kts | 91° |
| 2026-05-09 07:50 | 41.99890 | 30.70140 | 31086 ft | 445 kts | 91° |
| 2026-05-09 07:50 | 41.99941 | 30.78459 | 31089 ft | 445 kts | 91° |
| 2026-05-09 07:51 | 41.99984 | 30.86782 | 31083 ft | 445 kts | 90° |
| 2026-05-09 07:51 | 42.00023 | 30.94943 | 31090 ft | 444 kts | 90° |
| 2026-05-09 07:52 | 42.00362 | 31.03220 | 31096 ft | 445 kts | 80° |
| 2026-05-09 07:52 | 42.01975 | 31.11207 | 31096 ft | 446 kts | 75° |
| 2026-05-09 07:53 | 42.03681 | 31.19220 | 31095 ft | 445 kts | 75° |
| 2026-05-09 07:53 | 42.05379 | 31.27230 | 31091 ft | 445 kts | 75° |
| 2026-05-09 07:54 | 42.07071 | 31.35242 | 31086 ft | 445 kts | 75° |
| 2026-05-09 07:54 | 42.08751 | 31.43251 | 31090 ft | 444 kts | 75° |
| 2026-05-09 07:55 | 42.10428 | 31.51249 | 31091 ft | 444 kts | 75° |
| 2026-05-09 07:55 | 42.12111 | 31.59245 | 31089 ft | 444 kts | 75° |
| 2026-05-09 07:56 | 42.13781 | 31.67245 | 31084 ft | 444 kts | 75° |
| 2026-05-09 07:56 | 42.15438 | 31.75255 | 31081 ft | 444 kts | 75° |
| 2026-05-09 07:57 | 42.17092 | 31.83294 | 31078 ft | 444 kts | 75° |
| 2026-05-09 07:57 | 42.18743 | 31.91324 | 31079 ft | 445 kts | 75° |
| 2026-05-09 07:58 | 42.20388 | 31.99362 | 31081 ft | 445 kts | 76° |
| 2026-05-09 07:58 | 42.22037 | 32.07404 | 31082 ft | 445 kts | 76° |
| 2026-05-09 07:59 | 42.23669 | 32.15413 | 31078 ft | 445 kts | 75° |
| 2026-05-09 07:59 | 42.25324 | 32.23463 | 31074 ft | 445 kts | 74° |
| 2026-05-09 08:00 | 42.27146 | 32.31458 | 31080 ft | 445 kts | 73° |
| 2026-05-09 08:00 | 42.29036 | 32.39423 | 31082 ft | 445 kts | 73° |
| 2026-05-09 08:01 | 42.30890 | 32.47405 | 31116 ft | 443 kts | 73° |
| 2026-05-09 08:01 | 42.32590 | 32.55368 | 31123 ft | 439 kts | 80° |
| 2026-05-09 08:02 | 42.32771 | 32.63556 | 31124 ft | 436 kts | 98° |
| 2026-05-09 08:02 | 42.31860 | 32.71660 | 31118 ft | 435 kts | 99° |
| 2026-05-09 08:03 | 42.30956 | 32.79738 | 30868 ft | 435 kts | 99° |
| 2026-05-09 08:03 | 42.30496 | 32.83775 | 30621 ft | 436 kts | 99° |
| 2026-05-09 08:03 | 42.30030 | 32.87829 | 30383 ft | 437 kts | 99° |
| 2026-05-09 08:03 | 42.29561 | 32.91883 | 30135 ft | 438 kts | 99° |
| 2026-05-09 08:04 | 42.29090 | 32.95951 | 29857 ft | 439 kts | 99° |
| 2026-05-09 08:04 | 42.28620 | 33.00030 | 29576 ft | 440 kts | 99° |
| 2026-05-09 08:04 | 42.28149 | 33.04115 | 29300 ft | 441 kts | 99° |
| 2026-05-09 08:04 | 42.27675 | 33.08206 | 29022 ft | 441 kts | 99° |
| 2026-05-09 08:05 | 42.27200 | 33.12297 | 28749 ft | 441 kts | 99° |
| 2026-05-09 08:05 | 42.26724 | 33.16373 | 28480 ft | 439 kts | 99° |
| 2026-05-09 08:05 | 42.26246 | 33.20434 | 28178 ft | 436 kts | 99° |
| 2026-05-09 08:05 | 42.25776 | 33.24406 | 27577 ft | 433 kts | 99° |
| 2026-05-09 08:06 | 42.25457 | 33.27105 | 27169 ft | 431 kts | 99° |
| 2026-05-09 08:06 | 42.24835 | 33.32367 | 26383 ft | 426 kts | 99° |
| 2026-05-09 08:06 | 42.24371 | 33.36302 | 25791 ft | 423 kts | 99° |
| 2026-05-09 08:06 | 42.24059 | 33.38945 | 25402 ft | 421 kts | 99° |
| 2026-05-09 08:07 | 42.23595 | 33.42836 | 24816 ft | 419 kts | 99° |
| 2026-05-09 08:07 | 42.23131 | 33.46706 | 24254 ft | 417 kts | 99° |
| 2026-05-09 08:07 | 42.22670 | 33.50553 | 23694 ft | 415 kts | 99° |
| 2026-05-09 08:07 | 42.22209 | 33.54381 | 23103 ft | 412 kts | 99° |
| 2026-05-09 08:08 | 42.21750 | 33.58184 | 22580 ft | 408 kts | 99° |
| 2026-05-09 08:08 | 42.21294 | 33.61938 | 22079 ft | 404 kts | 99° |
| 2026-05-09 08:08 | 42.20842 | 33.65662 | 21580 ft | 400 kts | 99° |
| 2026-05-09 08:08 | 42.20302 | 33.69325 | 21089 ft | 396 kts | 108° |
| 2026-05-09 08:09 | 42.19106 | 33.72625 | 20604 ft | 390 kts | 126° |
| 2026-05-09 08:09 | 42.17245 | 33.75237 | 20107 ft | 385 kts | 144° |
| 2026-05-09 08:09 | 42.14904 | 33.76940 | 19588 ft | 380 kts | 162° |
| 2026-05-09 08:09 | 42.12328 | 33.77610 | 19029 ft | 377 kts | 179° |
| 2026-05-09 08:10 | 42.09736 | 33.77228 | 18469 ft | 375 kts | 196° |
| 2026-05-09 08:10 | 42.07271 | 33.76146 | 17854 ft | 372 kts | 199° |
| 2026-05-09 08:10 | 42.04830 | 33.75029 | 17278 ft | 368 kts | 199° |
| 2026-05-09 08:10 | 42.02415 | 33.73922 | 16708 ft | 365 kts | 199° |
| 2026-05-09 08:11 | 42.00019 | 33.72829 | 16136 ft | 361 kts | 199° |
| 2026-05-09 08:11 | 41.97677 | 33.71768 | 15571 ft | 358 kts | 198° |
| 2026-05-09 08:11 | 41.95258 | 33.71032 | 14977 ft | 356 kts | 187° |
| 2026-05-09 08:11 | 41.92786 | 33.70989 | 14438 ft | 354 kts | 175° |
| 2026-05-09 08:12 | 41.87950 | 33.71765 | 13556 ft | 342 kts | 174° |
| 2026-05-09 08:12 | 41.85637 | 33.72124 | 13421 ft | 327 kts | 174° |
| 2026-05-09 08:12 | 41.83416 | 33.72464 | 13283 ft | 315 kts | 174° |
| 2026-05-09 08:13 | 41.81280 | 33.72788 | 13144 ft | 303 kts | 174° |
| 2026-05-09 08:13 | 41.79226 | 33.73277 | 12876 ft | 298 kts | 165° |
| 2026-05-09 08:13 | 41.77243 | 33.74021 | 12524 ft | 298 kts | 165° |
| 2026-05-09 08:13 | 41.75252 | 33.74762 | 12172 ft | 295 kts | 165° |
| 2026-05-09 08:14 | 41.73288 | 33.75489 | 11771 ft | 291 kts | 165° |
| 2026-05-09 08:14 | 41.71346 | 33.76208 | 11203 ft | 287 kts | 165° |
| 2026-05-09 08:14 | 41.69430 | 33.76919 | 10629 ft | 284 kts | 166° |
| 2026-05-09 08:14 | 41.67530 | 33.77624 | 10124 ft | 281 kts | 166° |
| 2026-05-09 08:15 | 41.65665 | 33.78316 | 9555 ft | 276 kts | 166° |
| 2026-05-09 08:15 | 41.63818 | 33.78998 | 8955 ft | 274 kts | 166° |
| 2026-05-09 08:15 | 41.61984 | 33.79676 | 8368 ft | 273 kts | 166° |
| 2026-05-09 08:15 | 41.60191 | 33.80340 | 8066 ft | 261 kts | 166° |
| 2026-05-09 08:16 | 41.58516 | 33.80962 | 7925 ft | 245 kts | 166° |
| 2026-05-09 08:16 | 41.56936 | 33.81551 | 7815 ft | 227 kts | 166° |
| 2026-05-09 08:16 | 41.55470 | 33.82096 | 7723 ft | 213 kts | 166° |
| 2026-05-09 08:16 | 41.54074 | 33.82611 | 7669 ft | 204 kts | 166° |
| 2026-05-09 08:17 | 41.52674 | 33.82824 | 7520 ft | 203 kts | 183° |
| 2026-05-09 08:17 | 41.51275 | 33.82624 | 7209 ft | 201 kts | 187° |
| 2026-05-09 08:17 | 41.49890 | 33.82399 | 6923 ft | 200 kts | 187° |
| 2026-05-09 08:17 | 41.48512 | 33.82185 | 6648 ft | 199 kts | 187° |
| 2026-05-09 08:18 | 41.47136 | 33.81974 | 6366 ft | 199 kts | 187° |
| 2026-05-09 08:18 | 41.45778 | 33.81767 | 6087 ft | 193 kts | 187° |
| 2026-05-09 08:18 | 41.44462 | 33.81567 | 5827 ft | 188 kts | 186° |
| 2026-05-09 08:18 | 41.43198 | 33.81374 | 5571 ft | 179 kts | 187° |
| 2026-05-09 08:19 | 41.41963 | 33.81186 | 5335 ft | 178 kts | 186° |
| 2026-05-09 08:19 | 41.40732 | 33.80999 | 5126 ft | 178 kts | 186° |
| 2026-05-09 08:19 | 41.39520 | 33.80814 | 4903 ft | 166 kts | 186° |
| 2026-05-09 08:19 | 41.38452 | 33.80652 | 4680 ft | 148 kts | 186° |
| 2026-05-09 08:20 | 41.37463 | 33.80501 | 4488 ft | 139 kts | 186° |
| 2026-05-09 08:20 | 41.36891 | 33.80414 | 4386 ft | 138 kts | 186° |
| 2026-05-09 08:20 | 41.36078 | 33.80291 | 4224 ft | 135 kts | 186° |
| 2026-05-09 08:20 | 41.35141 | 33.80148 | 4054 ft | 135 kts | 186° |
| 2026-05-09 08:21 | 41.34203 | 33.80006 | 3883 ft | 136 kts | 186° |
| 2026-05-09 08:21 | 41.33265 | 33.79864 | 3706 ft | 136 kts | 186° |
| 2026-05-09 08:21 | 41.32317 | 33.79719 | 3549 ft | 137 kts | 186° |
| 2026-05-09 08:21 | 41.31465 | 33.79597 | 3522 ft | 93 kts | 187° |
| 2026-05-09 08:22 | 41.31010 | 33.79520 | 3525 ft | 50 kts | 186° |
| 2026-05-09 08:22 | 41.30698 | 33.79473 | 3524 ft | 39 kts | 186° |
| 2026-05-09 08:22 | 41.30525 | 33.79417 | 3523 ft | 12 kts | 224° |
| 2026-05-09 08:22 | 41.30479 | 33.79370 | 3519 ft | 8 kts | 185° |
| 2026-05-09 08:23 | 41.30462 | 33.79430 | 3521 ft | 8 kts | 55° |
| 2026-05-09 08:23 | 41.30519 | 33.79446 | 3523 ft | 9 kts | 4° |
| 2026-05-09 08:23 | 41.30607 | 33.79461 | 3520 ft | 17 kts | 7° |
| 2026-05-09 08:23 | 41.30752 | 33.79482 | 3523 ft | 26 kts | 7° |
| 2026-05-09 08:24 | 41.30963 | 33.79515 | 3522 ft | 36 kts | 7° |
| 2026-05-09 08:24 | 41.31229 | 33.79555 | 3527 ft | 41 kts | 7° |
| 2026-05-09 08:24 | 41.31518 | 33.79600 | 3523 ft | 32 kts | 6° |
| 2026-05-09 08:24 | 41.31652 | 33.79621 | 3527 ft | 12 kts | 6° |
| 2026-05-09 08:25 | 41.31694 | 33.79672 | 3518 ft | 11 kts | 92° |
| 2026-05-09 08:25 | 41.31685 | 33.79800 | 3519 ft | 17 kts | 96° |
| 2026-05-09 08:25 | 41.31660 | 33.79904 | 3521 ft | 5 kts | 130° |
| 2026-05-09 08:25 | 41.31643 | 33.79926 | 3521 ft | 0 kts | 135° |
| 2026-05-09 08:26 | 41.31643 | 33.79927 | 3521 ft | 0 kts | 136° |